Time;durP1;ratioP1;P1;durP2;ratioP2;P2;SDS_P1;SDS_P2;PMS_P1;PMS_P2;Temp;Humidity;BMP_temperature;BMP_pressure;BME280_temperature;BME280_humidity;BME280_pressure;Samples;Min_cycle;Max_cycle;Signal;HPM_P1;HPM_P2
2021/10/21 00:01:27;;;;;;;;;;;12.60;99.90;;;;;;5094734;28;20012;-74
2021/10/21 00:03:52;;;;;;;;;;;12.60;99.90;;;;;;5093417;28;19915;-75
2021/10/21 00:06:18;;;;;;;;;;;12.60;99.90;;;;;;5094975;28;19970;-74
2021/10/21 00:08:45;;;;;;;;;;;12.60;99.90;;;;;;5094716;28;19961;-75
2021/10/21 00:11:11;;;;;;;;;;;12.60;99.90;;;;;;5093927;28;19909;-75
2021/10/21 00:13:36;;;;;;;;;;;12.60;99.90;;;;;;5094609;28;20010;-75
2021/10/21 00:16:02;;;;;;;;;;;12.50;99.90;;;;;;5093502;28;20427;-75
2021/10/21 00:18:27;;;;;;;;;;;12.60;99.90;;;;;;5093387;28;19961;-74
2021/10/21 00:20:53;;;;;;;;;;;12.60;99.90;;;;;;5094585;28;19909;-75
2021/10/21 00:23:18;;;;;;;;;;;12.80;99.90;;;;;;5094524;28;19915;-75
2021/10/21 00:25:44;;;;;;;;;;;12.90;99.90;;;;;;5094533;28;19970;-75
2021/10/21 00:28:12;;;;;;;;;;;12.90;99.90;;;;;;5093843;28;19912;-75
2021/10/21 00:30:37;;;;;;;;;;;12.90;99.90;;;;;;5094689;28;19912;-74
2021/10/21 00:33:03;;;;;;;;;;;13.00;99.90;;;;;;5094199;28;19908;-75
2021/10/21 00:35:29;;;;;;;;;;;12.90;99.90;;;;;;5094699;28;19915;-75
2021/10/21 00:37:54;;;;;;;;;;;13.00;99.90;;;;;;5094599;28;19954;-74
2021/10/21 00:40:22;;;;;;;;;;;13.10;99.90;;;;;;5094304;28;19908;-74
2021/10/21 00:42:47;;;;;;;;;;;13.30;99.90;;;;;;5092356;28;19912;-75
2021/10/21 00:45:13;;;;;;;;;;;13.30;99.90;;;;;;5093309;28;19915;-75
2021/10/21 00:47:39;;;;;;;;;;;13.20;99.90;;;;;;5101249;28;19908;-75
2021/10/21 00:50:05;;;;;;;;;;;13.10;99.90;;;;;;5114624;28;19907;-75
2021/10/21 00:52:31;;;;;;;;;;;13.10;99.90;;;;;;5113622;28;20304;-75
2021/10/21 00:54:57;;;;;;;;;;;13.10;99.90;;;;;;5114564;28;19908;-75
2021/10/21 00:57:22;;;;;;;;;;;13.10;99.90;;;;;;5114617;28;19915;-74
2021/10/21 00:59:48;;;;;;;;;;;13.10;99.90;;;;;;5114623;28;19908;-75
2021/10/21 01:02:14;;;;;;;;;;;13.00;99.90;;;;;;5114425;28;19908;-75
2021/10/21 01:04:40;;;;;;;;;;;13.00;99.90;;;;;;5114737;28;19915;-76
2021/10/21 01:07:05;;;;;;;;;;;12.90;99.90;;;;;;5114892;28;19919;-75
2021/10/21 01:09:32;;;;;;;;;;;12.90;99.90;;;;;;5114150;28;19916;-75
2021/10/21 01:11:57;;;;;;;;;;;12.90;99.90;;;;;;5114071;28;20295;-75
2021/10/21 01:14:23;;;;;;;;;;;12.90;99.90;;;;;;5113570;28;19908;-74
2021/10/21 01:16:48;;;;;;;;;;;12.80;99.90;;;;;;5095042;28;20420;-74
2021/10/21 01:19:18;;;;;;;;;;;12.90;99.90;;;;;;5093353;28;20178;-76
2021/10/21 01:21:44;;;;;;;;;;;12.90;99.90;;;;;;5093428;28;19922;-76
2021/10/21 01:24:10;;;;;;;;;;;12.90;99.90;;;;;;5093355;28;20279;-75
2021/10/21 01:26:36;;;;;;;;;;;12.90;99.90;;;;;;5093586;28;19908;-76
2021/10/21 01:29:01;;;;;;;;;;;12.90;99.90;;;;;;5092036;28;19920;-76
2021/10/21 01:31:27;;;;;;;;;;;12.90;99.90;;;;;;5093807;28;19933;-74
2021/10/21 01:33:52;;;;;;;;;;;12.90;99.90;;;;;;5093567;28;20296;-76
2021/10/21 01:36:18;;;;;;;;;;;12.90;99.90;;;;;;5093746;28;19916;-76
2021/10/21 01:38:43;;;;;;;;;;;12.90;99.90;;;;;;5093783;28;19908;-76
2021/10/21 01:41:09;;;;;;;;;;;13.00;99.90;;;;;;5093357;28;19908;-76
2021/10/21 01:43:41;;;;;;;;;;;13.10;99.90;;;;;;5092977;28;19908;-76
2021/10/21 01:46:07;;;;;;;;;;;13.10;99.90;;;;;;5093197;28;20365;-76
2021/10/21 01:48:33;;;;;;;;;;;13.10;99.90;;;;;;5093245;28;19919;-76
2021/10/21 01:50:58;;;;;;;;;;;13.20;99.90;;;;;;5093362;28;19908;-75
2021/10/21 01:53:24;;;;;;;;;;;13.20;99.90;;;;;;5092837;28;20329;-75
2021/10/21 01:55:49;;;;;;;;;;;13.20;99.90;;;;;;5092825;28;19953;-76
2021/10/21 01:58:15;;;;;;;;;;;13.20;99.90;;;;;;5093050;28;19915;-76
2021/10/21 02:00:40;;;;;;;;;;;13.20;99.90;;;;;;5093020;28;20014;-76
2021/10/21 02:03:06;;;;;;;;;;;13.20;99.90;;;;;;5092808;28;19975;-74
2021/10/21 02:05:31;;;;;;;;;;;13.20;99.90;;;;;;5093496;28;19946;-76
2021/10/21 02:07:57;;;;;;;;;;;13.20;99.90;;;;;;5092236;28;19912;-76
2021/10/21 02:10:22;;;;;;;;;;;13.10;99.90;;;;;;5093374;28;19908;-75
2021/10/21 02:12:48;;;;;;;;;;;13.20;99.90;;;;;;5091645;28;20030;-76
2021/10/21 02:15:14;;;;;;;;;;;13.20;99.90;;;;;;5092491;28;20178;-76
2021/10/21 02:17:40;;;;;;;;;;;13.10;99.90;;;;;;5092173;28;19909;-76
2021/10/21 02:20:06;;;;;;;;;;;13.10;99.90;;;;;;5092212;28;19915;-76
2021/10/21 02:22:32;;;;;;;;;;;13.10;99.90;;;;;;5092398;28;19912;-76
2021/10/21 02:24:57;;;;;;;;;;;13.00;99.90;;;;;;5092432;28;20434;-75
2021/10/21 02:27:23;;;;;;;;;;;13.00;99.90;;;;;;5091749;28;19908;-75
2021/10/21 02:29:49;;;;;;;;;;;13.00;99.90;;;;;;5090972;28;19912;-75
2021/10/21 02:32:14;;;;;;;;;;;13.00;99.90;;;;;;5092037;28;19908;-76
2021/10/21 02:34:40;;;;;;;;;;;13.10;99.90;;;;;;5091840;28;19938;-76
2021/10/21 02:37:05;;;;;;;;;;;13.10;99.90;;;;;;5090808;28;19966;-75
2021/10/21 02:39:31;;;;;;;;;;;13.10;99.90;;;;;;5092231;28;19912;-76
2021/10/21 02:41:56;;;;;;;;;;;13.20;99.90;;;;;;5091884;28;19908;-76
2021/10/21 02:44:22;;;;;;;;;;;13.30;99.90;;;;;;5091628;28;20419;-75
2021/10/21 02:46:47;;;;;;;;;;;13.40;99.90;;;;;;5090949;28;19915;-76
2021/10/21 02:49:13;;;;;;;;;;;13.30;99.90;;;;;;5071753;28;19952;-75
2021/10/21 02:51:40;;;;;;;;;;;13.30;99.90;;;;;;5071597;28;20293;-75
2021/10/21 02:54:06;;;;;;;;;;;13.30;99.90;;;;;;5071255;28;19908;-75
2021/10/21 02:56:32;;;;;;;;;;;13.40;99.90;;;;;;5070230;28;20420;-76
2021/10/21 02:58:57;;;;;;;;;;;13.30;99.90;;;;;;5071372;28;20285;-74
2021/10/21 03:01:23;;;;;;;;;;;13.30;99.90;;;;;;5071351;28;19963;-76
2021/10/21 03:03:48;;;;;;;;;;;13.30;99.90;;;;;;5070914;28;20359;-76
2021/10/21 03:06:13;;;;;;;;;;;13.30;99.90;;;;;;5070714;28;19924;-76
2021/10/21 03:08:39;;;;;;;;;;;13.30;99.90;;;;;;5069668;28;19920;-76
2021/10/21 03:11:04;;;;;;;;;;;13.30;99.90;;;;;;5069565;28;19913;-76
2021/10/21 03:13:30;;;;;;;;;;;13.30;99.90;;;;;;5070720;28;20007;-76
2021/10/21 03:15:56;;;;;;;;;;;13.30;99.90;;;;;;5079993;28;19915;-76
2021/10/21 03:18:21;;;;;;;;;;;13.40;99.90;;;;;;5090957;28;19912;-76
2021/10/21 03:20:47;;;;;;;;;;;13.40;99.90;;;;;;5091564;28;19953;-76
2021/10/21 03:23:12;;;;;;;;;;;13.40;99.90;;;;;;5091255;28;19912;-76
2021/10/21 03:25:38;;;;;;;;;;;13.30;99.90;;;;;;5090980;28;19994;-75
2021/10/21 03:28:03;;;;;;;;;;;13.30;99.90;;;;;;5091511;28;19920;-76
2021/10/21 03:30:29;;;;;;;;;;;13.30;99.90;;;;;;5091099;28;19954;-76
2021/10/21 03:32:54;;;;;;;;;;;13.40;99.90;;;;;;5089113;28;19919;-76
2021/10/21 03:35:20;;;;;;;;;;;13.40;99.90;;;;;;5090944;28;19908;-74
2021/10/21 03:37:45;;;;;;;;;;;13.40;99.90;;;;;;5091236;28;19944;-76
2021/10/21 03:40:12;;;;;;;;;;;13.30;99.90;;;;;;5094532;28;19912;-75
2021/10/21 03:42:37;;;;;;;;;;;13.30;99.90;;;;;;5094300;28;20277;-75
2021/10/21 03:45:04;;;;;;;;;;;13.30;99.90;;;;;;5092475;28;19912;-75
2021/10/21 03:47:29;;;;;;;;;;;13.30;99.90;;;;;;5094111;28;19915;-75
2021/10/21 03:49:55;;;;;;;;;;;13.30;99.90;;;;;;5094372;28;19916;-75
2021/10/21 03:52:20;;;;;;;;;;;13.10;99.90;;;;;;5094085;28;19915;-75
2021/10/21 03:54:46;;;;;;;;;;;13.20;99.90;;;;;;5094132;28;20312;-75
2021/10/21 03:57:12;;;;;;;;;;;13.10;99.90;;;;;;5094160;28;20372;-75
2021/10/21 03:59:38;;;;;;;;;;;13.20;99.90;;;;;;5094186;28;19908;-74
2021/10/21 04:02:03;;;;;;;;;;;13.10;99.90;;;;;;5093870;28;19912;-74
2021/10/21 04:04:29;;;;;;;;;;;13.10;99.90;;;;;;5094067;28;19990;-75
2021/10/21 04:06:54;;;;;;;;;;;13.00;99.90;;;;;;5092510;28;20361;-75
2021/10/21 04:09:20;;;;;;;;;;;13.10;99.90;;;;;;5093880;28;20361;-74
2021/10/21 04:11:45;;;;;;;;;;;13.00;99.90;;;;;;5093874;28;19915;-75
2021/10/21 04:14:11;;;;;;;;;;;12.90;99.90;;;;;;5093334;28;19916;-75
2021/10/21 04:16:36;;;;;;;;;;;12.90;99.90;;;;;;5093217;28;19914;-75
2021/10/21 04:19:02;;;;;;;;;;;12.80;99.90;;;;;;5093586;28;19951;-74
2021/10/21 04:21:27;;;;;;;;;;;13.00;99.90;;;;;;5093812;28;19909;-75
2021/10/21 04:23:53;;;;;;;;;;;12.80;99.90;;;;;;5093000;28;20410;-74
2021/10/21 04:26:19;;;;;;;;;;;12.60;99.90;;;;;;5093691;28;19904;-74
2021/10/21 04:28:44;;;;;;;;;;;12.50;99.90;;;;;;5092116;28;19912;-74
2021/10/21 04:31:10;;;;;;;;;;;12.50;99.90;;;;;;5093568;28;19908;-74
2021/10/21 04:33:35;;;;;;;;;;;12.40;99.90;;;;;;5093114;28;19915;-75
2021/10/21 04:36:01;;;;;;;;;;;12.40;99.90;;;;;;5093362;28;19956;-74
2021/10/21 04:38:26;;;;;;;;;;;12.20;99.90;;;;;;5093150;28;19908;-74
2021/10/21 04:40:52;;;;;;;;;;;12.20;99.90;;;;;;5093346;28;19908;-74
2021/10/21 04:43:17;;;;;;;;;;;12.70;99.90;;;;;;5092905;28;19966;-74
2021/10/21 04:45:43;;;;;;;;;;;12.70;99.90;;;;;;5092500;28;20310;-74
2021/10/21 04:48:08;;;;;;;;;;;12.50;99.90;;;;;;5092834;28;20022;-74
2021/10/21 04:50:34;;;;;;;;;;;12.30;99.90;;;;;;5092476;28;19908;-75
2021/10/21 04:52:59;;;;;;;;;;;12.20;99.90;;;;;;5092586;28;20331;-74
2021/10/21 04:55:25;;;;;;;;;;;11.90;99.90;;;;;;5092762;28;19934;-74
2021/10/21 04:57:51;;;;;;;;;;;11.90;99.90;;;;;;5092931;28;19913;-74
2021/10/21 05:00:17;;;;;;;;;;;11.90;99.90;;;;;;5093057;28;19914;-74
2021/10/21 05:02:43;;;;;;;;;;;11.90;99.90;;;;;;5092602;28;19908;-74
2021/10/21 05:05:09;;;;;;;;;;;11.70;99.90;;;;;;5092536;28;19965;-74
2021/10/21 05:07:34;;;;;;;;;;;11.60;99.90;;;;;;5092688;28;20292;-74
2021/10/21 05:10:00;;;;;;;;;;;11.50;99.90;;;;;;5092794;28;19912;-74
2021/10/21 05:12:25;;;;;;;;;;;11.30;99.90;;;;;;5091116;28;19959;-74
2021/10/21 05:14:52;;;;;;;;;;;11.20;99.90;;;;;;5091867;28;19954;-74
2021/10/21 05:17:18;;;;;;;;;;;11.30;99.90;;;;;;5092469;28;20285;-74
2021/10/21 05:19:43;;;;;;;;;;;11.30;99.90;;;;;;5092638;28;20074;-74
2021/10/21 05:22:09;;;;;;;;;;;11.40;99.90;;;;;;5092240;28;20328;-75
2021/10/21 05:24:34;;;;;;;;;;;11.60;99.90;;;;;;5092341;28;19908;-76
2021/10/21 05:27:00;;;;;;;;;;;11.60;99.90;;;;;;5092710;28;19908;-74
2021/10/21 05:29:26;;;;;;;;;;;11.70;99.90;;;;;;5092994;28;20015;-74
2021/10/21 05:31:52;;;;;;;;;;;11.60;99.90;;;;;;5092859;28;20392;-75
2021/10/21 05:34:18;;;;;;;;;;;11.50;99.90;;;;;;5091587;28;19908;-74
2021/10/21 05:36:43;;;;;;;;;;;11.50;99.90;;;;;;5092322;28;19969;-74
2021/10/21 05:39:09;;;;;;;;;;;11.50;99.90;;;;;;5091086;28;19934;-76
2021/10/21 05:41:34;;;;;;;;;;;11.40;99.90;;;;;;5092705;28;19908;-75
2021/10/21 05:44:00;;;;;;;;;;;11.30;99.90;;;;;;5092307;28;19908;-76
2021/10/21 05:46:25;;;;;;;;;;;11.20;99.90;;;;;;5092098;28;19908;-76
2021/10/21 05:48:51;;;;;;;;;;;11.20;99.90;;;;;;5092255;28;19968;-74
2021/10/21 05:51:16;;;;;;;;;;;11.10;99.90;;;;;;5092354;28;20257;-73
2021/10/21 05:53:43;;;;;;;;;;;11.10;99.90;;;;;;5091873;28;19922;-75
2021/10/21 05:56:08;;;;;;;;;;;11.10;99.90;;;;;;5092406;28;19909;-75
2021/10/21 05:58:34;;;;;;;;;;;11.10;99.90;;;;;;5092307;28;19934;-75
2021/10/21 06:00:59;;;;;;;;;;;11.00;99.90;;;;;;5091752;28;19908;-75
2021/10/21 06:03:26;;;;;;;;;;;11.00;99.90;;;;;;5091536;28;19908;-75
2021/10/21 06:05:52;;;;;;;;;;;11.20;99.90;;;;;;5091825;28;19919;-75
2021/10/21 06:08:17;;;;;;;;;;;11.20;99.90;;;;;;5092130;28;19919;-74
2021/10/21 06:10:43;;;;;;;;;;;11.30;99.90;;;;;;5091894;28;19908;-75
2021/10/21 06:13:08;;;;;;;;;;;11.30;99.90;;;;;;5091733;28;20353;-76
2021/10/21 06:15:34;;;;;;;;;;;11.30;99.90;;;;;;5092098;28;19915;-76
2021/10/21 06:18:03;;;;;;;;;;;11.20;99.90;;;;;;5092169;28;19908;-74
2021/10/21 06:20:29;;;;;;;;;;;11.20;99.90;;;;;;5092156;28;19909;-74
2021/10/21 06:22:55;;;;;;;;;;;11.30;99.90;;;;;;5091654;28;19912;-74
2021/10/21 06:25:21;;;;;;;;;;;11.30;99.90;;;;;;5091090;28;19925;-75
2021/10/21 06:27:47;;;;;;;;;;;11.40;99.90;;;;;;5091579;28;19915;-75
2021/10/21 06:30:12;;;;;;;;;;;11.30;99.90;;;;;;5091929;28;19908;-75
2021/10/21 06:32:38;;;;;;;;;;;11.10;99.90;;;;;;5094119;28;20328;-74
2021/10/21 06:35:04;;;;;;;;;;;11.20;99.90;;;;;;5093127;28;20276;-74
2021/10/21 06:37:30;;;;;;;;;;;11.10;99.90;;;;;;5092589;28;19908;-74
2021/10/21 06:39:56;;;;;;;;;;;11.10;99.90;;;;;;5092282;28;19908;-75
2021/10/21 06:42:22;;;;;;;;;;;11.00;99.90;;;;;;5091890;28;20011;-75
2021/10/21 06:44:47;;;;;;;;;;;11.00;99.90;;;;;;5091592;28;19908;-74
2021/10/21 06:47:13;;;;;;;;;;;11.00;99.90;;;;;;5083666;28;20394;-74
2021/10/21 06:49:38;;;;;;;;;;;11.00;99.90;;;;;;5090598;28;19927;-75
2021/10/21 06:52:04;;;;;;;;;;;11.10;99.90;;;;;;5092090;28;19989;-74
2021/10/21 06:54:30;;;;;;;;;;;11.10;99.90;;;;;;5091801;28;19908;-75
2021/10/21 06:56:55;;;;;;;;;;;11.10;99.90;;;;;;5092132;28;19931;-75
2021/10/21 06:59:21;;;;;;;;;;;11.30;99.90;;;;;;5090831;28;19908;-74
2021/10/21 07:01:46;;;;;;;;;;;11.30;99.90;;;;;;5091910;28;20436;-74
2021/10/21 07:04:12;;;;;;;;;;;11.40;99.90;;;;;;5091409;28;19912;-74
2021/10/21 07:06:37;;;;;;;;;;;11.50;99.90;;;;;;5091753;28;20276;-75
2021/10/21 07:09:03;;;;;;;;;;;11.70;99.90;;;;;;5091969;28;19957;-75
2021/10/21 07:11:30;;;;;;;;;;;11.80;99.90;;;;;;5092236;28;19908;-74
2021/10/21 07:13:55;;;;;;;;;;;11.90;99.90;;;;;;5093884;28;19912;-74
2021/10/21 07:16:21;;;;;;;;;;;12.00;99.90;;;;;;5095412;28;20186;-74
2021/10/21 07:18:47;;;;;;;;;;;12.00;99.90;;;;;;5112406;28;19960;-74
2021/10/21 07:21:17;;;;;;;;;;;11.90;99.90;;;;;;5116185;28;19992;-74
2021/10/21 07:23:42;;;;;;;;;;;11.90;99.90;;;;;;5115587;28;20285;-74
2021/10/21 07:26:08;;;;;;;;;;;11.90;99.90;;;;;;5116445;28;19907;-74
2021/10/21 07:28:34;;;;;;;;;;;12.20;99.90;;;;;;5115880;28;20018;-74
2021/10/21 07:30:59;;;;;;;;;;;12.10;99.90;;;;;;5116137;28;20375;-74
2021/10/21 07:33:25;;;;;;;;;;;12.20;99.90;;;;;;5115390;28;19933;-75
2021/10/21 07:35:50;;;;;;;;;;;12.40;99.90;;;;;;5116180;28;19908;-74
2021/10/21 07:38:16;;;;;;;;;;;12.40;99.90;;;;;;5115658;28;19954;-74
2021/10/21 07:40:42;;;;;;;;;;;12.50;99.90;;;;;;5116046;28;19951;-74
2021/10/21 07:43:08;;;;;;;;;;;12.60;99.90;;;;;;5115659;28;20436;-74
2021/10/21 07:45:34;;;;;;;;;;;12.60;99.90;;;;;;5115433;28;20379;-74
2021/10/21 07:47:59;;;;;;;;;;;12.50;99.90;;;;;;5115786;28;19995;-74
2021/10/21 07:50:25;;;;;;;;;;;12.50;99.90;;;;;;5116057;28;20303;-74
2021/10/21 07:52:51;;;;;;;;;;;12.50;99.90;;;;;;5115541;28;20395;-74
2021/10/21 07:55:20;;;;;;;;;;;12.40;99.90;;;;;;5115918;28;20333;-74
2021/10/21 07:57:45;;;;;;;;;;;12.40;99.90;;;;;;5116152;28;19912;-75
2021/10/21 08:00:12;;;;;;;;;;;12.40;99.90;;;;;;5116423;28;20470;-75
2021/10/21 08:02:41;;;;;;;;;;;12.60;99.90;;;;;;5115757;28;19908;-75
2021/10/21 08:05:07;;;;;;;;;;;12.80;99.90;;;;;;5115640;28;19916;-75
2021/10/21 08:07:43;;;;;;;;;;;13.10;99.90;;;;;;5115604;28;20257;-76
2021/10/21 08:10:09;;;;;;;;;;;13.20;99.90;;;;;;5115428;28;20330;-73
2021/10/21 08:12:35;;;;;;;;;;;12.90;99.90;;;;;;5115513;28;19908;-75
2021/10/21 08:15:02;;;;;;;;;;;13.90;99.90;;;;;;5113912;28;19907;-75
2021/10/21 08:17:28;;;;;;;;;;;13.40;99.90;;;;;;5115563;28;19947;-74
2021/10/21 08:19:54;;;;;;;;;;;14.00;99.90;;;;;;5115595;28;19907;-75
2021/10/21 08:22:19;;;;;;;;;;;13.90;99.90;;;;;;5115117;28;19953;-75
2021/10/21 08:24:45;;;;;;;;;;;13.80;99.90;;;;;;5113909;28;19930;-74
2021/10/21 08:27:10;;;;;;;;;;;13.20;99.90;;;;;;5114957;28;19915;-75
2021/10/21 08:29:36;;;;;;;;;;;13.20;99.90;;;;;;5114720;28;20060;-75
2021/10/21 08:32:04;;;;;;;;;;;13.00;99.90;;;;;;5114999;28;19915;-74
2021/10/21 08:34:30;;;;;;;;;;;13.20;99.90;;;;;;5113891;28;19915;-75
2021/10/21 08:36:55;;;;;;;;;;;13.30;99.90;;;;;;5116039;28;19907;-75
2021/10/21 08:39:21;;;;;;;;;;;13.10;99.90;;;;;;5115299;28;19915;-75
2021/10/21 08:41:46;;;;;;;;;;;12.90;99.90;;;;;;5114011;28;20425;-75
2021/10/21 08:44:12;;;;;;;;;;;13.10;99.90;;;;;;5114255;28;19908;-75
2021/10/21 08:46:38;;;;;;;;;;;13.30;99.90;;;;;;5100901;28;19940;-75
2021/10/21 08:49:04;;;;;;;;;;;13.40;99.90;;;;;;5117757;28;19912;-75
2021/10/21 08:51:30;;;;;;;;;;;13.10;99.90;;;;;;5120245;28;20272;-75
2021/10/21 08:53:57;;;;;;;;;;;12.70;99.90;;;;;;5119875;28;19908;-75
2021/10/21 08:56:23;;;;;;;;;;;12.50;99.90;;;;;;5119120;28;19912;-76
2021/10/21 08:58:49;;;;;;;;;;;12.30;99.90;;;;;;5118531;28;19914;-75
2021/10/21 09:01:18;;;;;;;;;;;12.70;99.90;;;;;;5116464;28;20317;-76
2021/10/21 09:06:48;;;;;;;;;;;11.00;99.90;;;;;;5117997;28;19954;-76
2021/10/21 09:09:21;;;;;;;;;;;10.50;99.90;;;;;;5118271;28;19957;-75
2021/10/21 09:12:00;;;;;;;;;;;11.40;99.90;;;;;;5117251;28;19908;-74
2021/10/21 09:14:30;;;;;;;;;;;11.30;99.90;;;;;;5116886;28;19990;-75
2021/10/21 09:17:00;;;;;;;;;;;10.50;99.90;;;;;;5116963;28;19915;-76
2021/10/21 09:19:27;;;;;;;;;;;10.00;99.90;;;;;;5118258;28;19908;-75
2021/10/21 09:21:52;;;;;;;;;;;9.90;99.90;;;;;;5117805;28;19968;-75
2021/10/21 09:24:23;;;;;;;;;;;10.10;99.90;;;;;;5118149;28;19920;-76
2021/10/21 09:26:57;;;;;;;;;;;10.10;99.90;;;;;;5117032;28;19933;-76
2021/10/21 09:29:24;;;;;;;;;;;11.40;99.90;;;;;;5117670;28;19916;-76
2021/10/21 09:32:01;;;;;;;;;;;11.10;99.90;;;;;;5117803;28;20375;-75
2021/10/21 09:34:27;;;;;;;;;;;10.70;99.90;;;;;;5116965;28;19908;-75
2021/10/21 09:36:52;;;;;;;;;;;10.50;99.90;;;;;;5117048;28;19908;-76
2021/10/21 09:39:18;;;;;;;;;;;13.10;99.90;;;;;;5116994;28;19908;-76
2021/10/21 09:41:43;;;;;;;;;;;14.60;99.90;;;;;;5113582;28;20279;-76
2021/10/21 09:44:24;;;;;;;;;;;14.90;99.90;;;;;;5113378;28;19908;-76
2021/10/21 09:46:50;;;;;;;;;;;15.20;99.90;;;;;;5095391;28;19908;-74
2021/10/21 10:11:19;;;;;;;;;;;12.60;99.90;;;;;;5045447;27;1927103;-75
2021/10/21 10:13:46;;;;;;;;;;;13.00;99.90;;;;;;5109237;28;20348;-75
2021/10/21 10:16:12;;;;;;;;;;;13.60;99.90;;;;;;5090624;28;19908;-75
2021/10/21 10:18:41;;;;;;;;;;;13.60;99.90;;;;;;5109295;28;19965;-75
2021/10/21 10:21:21;;;;;;;;;;;13.80;99.90;;;;;;5110092;28;20369;-75
2021/10/21 10:23:51;;;;;;;;;;;14.30;99.90;;;;;;5110189;28;20288;-75
2021/10/21 10:26:50;;;;;;;;;;;12.50;99.90;;;;;;5110706;28;19934;-76
2021/10/21 10:29:17;;;;;;;;;;;12.00;99.90;;;;;;5054257;28;19927;-76
2021/10/21 10:31:44;;;;;;;;;;;12.30;99.90;;;;;;5082942;28;20348;-76
2021/10/21 10:34:29;;;;;;;;;;;12.30;99.90;;;;;;5110543;28;19947;-76
2021/10/21 10:36:55;;;;;;;;;;;13.30;99.90;;;;;;5110004;28;19914;-77
2021/10/21 10:39:39;;;;;;;;;;;13.90;99.90;;;;;;5110199;28;19912;-76
2021/10/21 10:42:04;;;;;;;;;;;13.90;99.90;;;;;;5091878;28;20006;-77
2021/10/21 10:44:35;;;;;;;;;;;14.10;99.90;;;;;;5110424;28;20362;-77
2021/10/21 10:47:05;;;;;;;;;;;14.20;99.90;;;;;;5110283;28;20366;-76
2021/10/21 10:49:36;;;;;;;;;;;14.30;99.90;;;;;;5110325;28;19912;-76
2021/10/21 10:52:03;;;;;;;;;;;14.20;99.90;;;;;;5109798;28;19908;-77
2021/10/21 10:54:43;;;;;;;;;;;15.10;99.90;;;;;;5110146;28;19908;-77
2021/10/21 10:57:24;;;;;;;;;;;16.80;99.40;;;;;;5109837;28;19908;-77
2021/10/21 10:59:50;;;;;;;;;;;14.50;99.90;;;;;;5091222;28;19916;-76
2021/10/21 11:02:25;;;;;;;;;;;13.70;99.90;;;;;;5101783;28;19915;-76
2021/10/21 11:04:51;;;;;;;;;;;13.20;99.90;;;;;;5071404;28;19955;-76
2021/10/21 11:07:16;;;;;;;;;;;12.90;99.90;;;;;;5089538;28;19916;-75
2021/10/21 11:09:44;;;;;;;;;;;13.70;99.90;;;;;;5089265;28;19917;-75
2021/10/21 11:12:12;;;;;;;;;;;13.90;99.90;;;;;;5075994;28;19993;-75
2021/10/21 11:14:44;;;;;;;;;;;15.30;99.90;;;;;;5075777;28;19954;-76
2021/10/21 11:17:09;;;;;;;;;;;15.40;99.90;;;;;;5075452;28;19915;-76
2021/10/21 11:19:44;;;;;;;;;;;15.00;99.90;;;;;;5075407;28;19912;-75
2021/10/21 11:22:10;;;;;;;;;;;13.90;99.90;;;;;;5075524;28;19957;-75
2021/10/21 11:27:11;;;;;;;;;;;12.60;99.90;;;;;;5075535;28;20378;-76
2021/10/21 11:29:37;;;;;;;;;;;12.50;99.90;;;;;;5074885;28;19915;-75
2021/10/21 11:32:06;;;;;;;;;;;12.50;99.90;;;;;;5089785;28;19930;-76
2021/10/21 11:34:32;;;;;;;;;;;12.40;99.90;;;;;;5095036;28;19908;-75
2021/10/21 11:36:57;;;;;;;;;;;12.30;99.90;;;;;;5095410;28;20301;-76
2021/10/21 11:39:30;;;;;;;;;;;12.10;99.90;;;;;;5094950;28;19978;-75
2021/10/21 11:41:55;;;;;;;;;;;12.10;99.90;;;;;;5094899;28;19948;-75
2021/10/21 11:44:55;;;;;;;;;;;12.10;99.90;;;;;;5095276;28;19916;-75
2021/10/21 11:47:25;;;;;;;;;;;12.00;99.90;;;;;;5095214;28;19961;-76
2021/10/21 11:49:55;;;;;;;;;;;12.00;99.90;;;;;;5094343;28;19942;-75
2021/10/21 11:52:21;;;;;;;;;;;12.10;99.90;;;;;;5093809;28;19912;-76
2021/10/21 11:54:46;;;;;;;;;;;12.10;99.90;;;;;;5076082;28;20290;-75
2021/10/21 11:57:12;;;;;;;;;;;12.00;99.90;;;;;;5095692;28;19908;-76
2021/10/21 11:59:41;;;;;;;;;;;11.90;99.90;;;;;;5093721;28;19942;-75
2021/10/21 12:02:07;;;;;;;;;;;12.00;99.90;;;;;;5087119;28;19908;-75
2021/10/21 12:04:32;;;;;;;;;;;12.00;99.90;;;;;;5092174;28;20270;-76
2021/10/21 12:06:58;;;;;;;;;;;12.10;99.90;;;;;;5075673;28;19957;-76
2021/10/21 12:09:24;;;;;;;;;;;12.00;99.90;;;;;;5093409;28;19916;-76
2021/10/21 12:11:59;;;;;;;;;;;12.00;99.90;;;;;;5092735;28;19916;-76
2021/10/21 12:14:26;;;;;;;;;;;12.20;99.90;;;;;;5094240;28;19908;-78
2021/10/21 12:16:51;;;;;;;;;;;12.20;99.90;;;;;;5093224;28;19908;-75
2021/10/21 12:19:29;;;;;;;;;;;12.30;99.90;;;;;;5093082;28;20190;-75
2021/10/21 12:22:02;;;;;;;;;;;12.40;99.90;;;;;;5092150;28;19915;-75
2021/10/21 12:24:28;;;;;;;;;;;12.70;99.90;;;;;;5093151;28;20362;-75
2021/10/21 12:27:01;;;;;;;;;;;12.70;99.90;;;;;;5092756;28;19915;-75
2021/10/21 12:29:41;;;;;;;;;;;12.50;99.90;;;;;;5074727;28;20348;-76
2021/10/21 12:32:08;;;;;;;;;;;12.40;99.90;;;;;;5077049;28;19987;-76
2021/10/21 12:34:34;;;;;;;;;;;12.90;99.90;;;;;;5072665;28;19958;-76
2021/10/21 12:36:59;;;;;;;;;;;12.90;99.90;;;;;;5054679;28;20316;-76
2021/10/21 12:39:32;;;;;;;;;;;13.00;99.90;;;;;;5054533;28;19913;-76
2021/10/21 12:42:01;;;;;;;;;;;13.20;99.90;;;;;;5054020;28;19908;-75
2021/10/21 12:44:27;;;;;;;;;;;13.40;99.90;;;;;;5072511;28;19909;-75
2021/10/21 12:47:29;;;;;;;;;;;13.20;99.90;;;;;;5054360;28;19920;-76
2021/10/21 12:49:59;;;;;;;;;;;13.10;99.90;;;;;;5072138;28;19908;-75
2021/10/21 12:52:26;;;;;;;;;;;12.80;99.90;;;;;;5072173;28;19908;-75
2021/10/21 12:55:10;;;;;;;;;;;13.00;99.90;;;;;;5072307;28;19974;-75
2021/10/21 12:57:42;;;;;;;;;;;13.00;99.90;;;;;;5072002;28;19999;-75
2021/10/21 13:00:07;;;;;;;;;;;13.10;99.90;;;;;;5071555;28;19958;-76
2021/10/21 13:02:33;;;;;;;;;;;12.80;99.90;;;;;;5070664;28;19908;-75
2021/10/21 13:04:59;;;;;;;;;;;12.60;99.90;;;;;;5072196;28;19908;-76
2021/10/21 13:07:26;;;;;;;;;;;12.70;99.90;;;;;;5071581;28;19927;-75
2021/10/21 13:09:53;;;;;;;;;;;12.60;99.90;;;;;;5071515;28;19951;-76
2021/10/21 13:12:19;;;;;;;;;;;12.70;99.90;;;;;;5053958;28;20406;-75
2021/10/21 13:14:48;;;;;;;;;;;12.90;99.90;;;;;;5072013;28;20340;-76
2021/10/21 13:17:14;;;;;;;;;;;12.90;99.90;;;;;;5071712;28;19916;-75
2021/10/21 13:19:39;;;;;;;;;;;13.00;99.90;;;;;;5071304;28;19963;-76
2021/10/21 13:22:06;;;;;;;;;;;12.80;99.90;;;;;;5071653;28;19955;-75
2021/10/21 13:24:32;;;;;;;;;;;12.80;99.90;;;;;;5071918;28;19908;-76
2021/10/21 13:26:58;;;;;;;;;;;13.00;99.90;;;;;;5073408;28;19916;-75
2021/10/21 13:29:24;;;;;;;;;;;13.00;99.90;;;;;;5071729;28;19970;-75
2021/10/21 13:31:49;;;;;;;;;;;12.90;99.90;;;;;;5082210;28;19908;-75
2021/10/21 13:34:15;;;;;;;;;;;12.70;99.90;;;;;;5071569;28;19909;-76
2021/10/21 13:36:41;;;;;;;;;;;12.50;99.90;;;;;;5071915;28;20382;-76
2021/10/21 13:39:06;;;;;;;;;;;12.40;99.90;;;;;;5071399;28;20003;-76
2021/10/21 13:41:32;;;;;;;;;;;12.30;99.90;;;;;;5071218;28;19908;-75
2021/10/21 13:43:58;;;;;;;;;;;12.10;99.90;;;;;;5071476;28;20336;-75
2021/10/21 13:46:23;;;;;;;;;;;12.20;99.90;;;;;;5071874;28;20373;-76
2021/10/21 13:48:49;;;;;;;;;;;12.20;99.90;;;;;;5071388;28;19908;-75
2021/10/21 13:51:14;;;;;;;;;;;12.20;99.90;;;;;;5070886;28;19909;-76
2021/10/21 13:53:40;;;;;;;;;;;12.20;99.90;;;;;;5071511;28;19909;-76
2021/10/21 13:56:12;;;;;;;;;;;12.20;99.90;;;;;;5071262;28;19912;-75
2021/10/21 13:58:40;;;;;;;;;;;12.30;99.90;;;;;;5071436;28;19931;-75
2021/10/21 14:01:06;;;;;;;;;;;12.30;99.90;;;;;;5077617;28;20426;-76
2021/10/21 14:03:31;;;;;;;;;;;12.40;99.90;;;;;;5083110;28;19912;-75
2021/10/21 14:05:57;;;;;;;;;;;12.50;99.90;;;;;;5091447;28;19912;-75
2021/10/21 14:08:23;;;;;;;;;;;12.50;99.90;;;;;;5091991;28;19938;-75
2021/10/21 14:10:48;;;;;;;;;;;12.50;99.90;;;;;;5090764;28;19916;-76
2021/10/21 14:13:14;;;;;;;;;;;12.50;99.90;;;;;;5073555;28;19908;-76
2021/10/21 14:15:40;;;;;;;;;;;12.30;99.90;;;;;;5091393;28;20262;-76
2021/10/21 14:18:06;;;;;;;;;;;12.20;99.90;;;;;;5091714;28;20373;-76
2021/10/21 14:20:31;;;;;;;;;;;12.30;99.90;;;;;;5090902;28;19912;-75
2021/10/21 14:22:57;;;;;;;;;;;12.50;99.90;;;;;;5091537;28;19938;-75
2021/10/21 14:25:23;;;;;;;;;;;12.50;99.90;;;;;;5091203;28;19953;-75
2021/10/21 14:27:49;;;;;;;;;;;12.70;99.90;;;;;;5091407;28;19908;-76
2021/10/21 14:30:15;;;;;;;;;;;13.00;99.90;;;;;;5091316;28;19908;-75
2021/10/21 14:32:41;;;;;;;;;;;13.10;99.90;;;;;;5056140;28;19919;-76
2021/10/21 14:35:07;;;;;;;;;;;12.90;99.90;;;;;;5091018;28;19908;-76
2021/10/21 14:37:38;;;;;;;;;;;12.80;99.90;;;;;;5072886;28;20305;-76
2021/10/21 14:40:04;;;;;;;;;;;12.90;99.90;;;;;;5072598;28;19919;-75
2021/10/21 14:42:30;;;;;;;;;;;12.90;99.90;;;;;;5073011;28;19915;-75